Data for 04/25/2014

Time Sea-Level Adjusted Pressure Absolute Pressure Temperature Relative Humidity Dew Point   
(mb) (inHg) (mb) (inHg) (C) (F) (%) (C) (F)
00:05 1013 29.91 842 24.86 4.4 40 79 1.1 34.1
00:10 1013 29.91 842 24.86 4.5 40.1 79 1.3 34.3
00:15 1013 29.91 842 24.86 4.6 40.3 78 1.1 33.9
00:20 1013 29.91 842 24.86 4.7 40.4 78 1.1 34
00:25 1013 29.91 842 24.86 4.8 40.6 77 1.2 34.1
00:30 1013 29.91 842 24.86 4.8 40.6 77 1 33.9
00:35 1013 29.91 842 24.86 4.7 40.4 79 1.4 34.4
00:40 1013 29.91 842 24.86 4.3 39.8 81 1.4 34.5
00:45 1013 29.91 842 24.86 4.1 39.4 81 1.2 34.2
00:50 1013 29.91 842 24.86 4 39.1 83 1.3 34.4
00:55 1013 29.91 842 24.86 3.8 38.9 81 0.9 33.7
01:00 1013 29.91 842 24.86 3.9 39 81 1 33.8
01:05 1013 29.91 842 24.86 3.5 38.2 83 0.8 33.4
01:10 1013 29.91 842 24.86 3.3 37.9 83 0.6 33.1
01:15 1013 29.91 842 24.86 3.4 38.1 82 0.6 33
01:20 1013 29.91 842 24.86 3.4 38.1 81 0.5 32.8
01:25 1013 29.91 842 24.86 3.1 37.5 82 0.3 32.6
01:30 1012 29.88 842 24.86 2.9 37.3 82 0.2 32.3
01:35 1012 29.88 842 24.86 2.8 37 83 0.2 32.4
01:40 1012 29.88 842 24.86 2.7 36.9 82 0 32.1
01:45 1012 29.88 842 24.86 2.7 36.9 82 0 32
01:50 1012 29.88 842 24.86 2.5 36.4 83 -0.1 31.9
01:55 1012 29.88 842 24.86 2.1 35.9 84 -0.2 31.6
02:00 1012 29.88 842 24.86 2.2 36 84 -0.3 31.5
02:05 1012 29.88 841 24.83 2.4 36.3 84 -0.1 31.8
02:10 1012 29.88 841 24.83 2.5 36.5 83 -0.1 31.9
02:15 1012 29.88 841 24.83 2.4 36.4 83 -0.1 31.8
02:20 1012 29.88 841 24.83 2.2 35.9 84 -0.2 31.6
02:25 1012 29.88 841 24.83 2.1 35.7 84 -0.3 31.5
02:30 1012 29.88 841 24.83 1.9 35.4 85 -0.4 31.3
02:35 1012 29.88 841 24.83 1.4 34.6 86 -0.6 30.9
02:40 1012 29.88 841 24.83 1.2 34.2 87 -0.7 30.7
02:45 1012 29.88 841 24.83 1.2 34.2 88 -0.6 30.8
02:50 1012 29.88 841 24.83 1.3 34.4 87 -0.7 30.8
02:55 1012 29.88 841 24.83 1.3 34.4 87 -0.7 30.8
03:00 1012 29.88 841 24.83 1.2 34.2 87 -0.8 30.6
03:05 1012 29.88 841 24.83 1.2 34.1 87 -0.8 30.6
03:10 1012 29.88 841 24.83 1.1 34.1 87 -0.8 30.6
03:15 1012 29.88 841 24.83 1.3 34.4 86 -0.8 30.6
03:20 1012 29.88 841 24.83 1.4 34.4 85 -0.8 30.5
03:25 1012 29.88 841 24.83 1.5 34.6 85 -0.8 30.5
03:30 1012 29.88 841 24.83 1.5 34.8 85 -0.8 30.6
03:35 1012 29.88 841 24.83 1.4 34.6 85 -0.8 30.6
03:40 1012 29.88 841 24.83 1.3 34.4 85 -0.9 30.5
03:45 1012 29.88 841 24.83 1.1 34 86 -0.9 30.3
03:50 1012 29.88 841 24.83 1.2 34.1 85 -1 30.2
03:55 1012 29.88 841 24.83 1.3 34.3 85 -1 30.3
04:00 1012 29.88 841 24.83 1.3 34.3 86 -0.8 30.5
04:05 1012 29.88 841 24.83 1.2 34.1 87 -0.8 30.5
04:10 1012 29.88 841 24.83 1.4 34.5 85 -0.9 30.4
04:15 1012 29.88 841 24.83 1.5 34.6 85 -0.8 30.6
04:20 1011 29.85 841 24.83 1.3 34.4 86 -0.7 30.7
04:25 1011 29.85 841 24.83 1.3 34.3 86 -0.8 30.5
04:30 1011 29.85 841 24.83 1.3 34.4 85 -0.8 30.5
04:35 1011 29.85 841 24.83 1.6 34.9 84 -0.7 30.7
04:40 1011 29.85 841 24.83 1.5 34.7 85 -0.8 30.5
04:45 1011 29.85 841 24.83 1.2 34.1 85 -1 30.2
04:50 1011 29.85 841 24.83 1.1 34 86 -1 30.2
04:55 1011 29.85 841 24.83 1.4 34.6 85 -0.9 30.4
05:00 1011 29.85 841 24.83 1.5 34.8 85 -0.7 30.8
05:05 1011 29.85 840 24.81 1.4 34.6 87 -0.5 31.1
05:10 1011 29.85 840 24.81 1.6 34.8 84 -0.8 30.6
05:15 1011 29.85 840 24.81 1.5 34.7 85 -0.8 30.6
05:20 1011 29.85 840 24.81 1.3 34.3 85 -0.9 30.3
05:25 1011 29.85 841 24.83 1.3 34.3 85 -0.9 30.3
05:30 1011 29.85 841 24.83 1.3 34.4 85 -0.9 30.4
05:35 1011 29.85 840 24.81 1.3 34.4 85 -0.9 30.4
05:40 1011 29.85 840 24.81 1.5 34.7 84 -0.9 30.4
05:45 1011 29.85 840 24.81 1.6 34.9 84 -0.9 30.4
05:50 1011 29.85 840 24.81 1.7 35.1 83 -0.8 30.5
05:55 1011 29.85 840 24.81 1.9 35.4 83 -0.6 30.8
06:00 1011 29.85 840 24.81 2 35.6 82 -0.7 30.8
06:05 1011 29.85 840 24.81 2 35.6 82 -0.8 30.6
06:10 1011 29.85 840 24.81 2 35.6 83 -0.5 31
06:15 1011 29.85 840 24.81 2.2 36 81 -0.7 30.8
06:20 1011 29.85 840 24.81 2.2 35.9 83 -0.5 31.1
06:25 1011 29.85 840 24.81 2.2 36 82 -0.5 31.1
06:30 1011 29.85 840 24.81 2.5 36.5 82 -0.3 31.4
06:35 1011 29.85 840 24.81 2.6 36.7 81 -0.3 31.5
06:40 1011 29.85 840 24.81 2.7 36.8 79 -0.6 31
06:45 1011 29.85 840 24.81 2.7 36.9 79 -0.5 31.1
06:50 1011 29.85 840 24.81 3 37.4 78 -0.4 31.3
06:55 1011 29.85 840 24.81 3.2 37.8 77 -0.4 31.3
07:00 1011 29.85 840 24.81 3.4 38.1 77 -0.3 31.4
07:05 1011 29.85 840 24.81 3.5 38.4 76 -0.3 31.5
07:10 1011 29.85 840 24.81 3.7 38.7 75 -0.3 31.5
07:15 1011 29.85 840 24.81 4.2 39.5 74 -0.1 31.8
07:20 1011 29.85 840 24.81 4.4 39.9 74 0.1 32.2
07:25 1011 29.85 840 24.81 4.8 40.7 72 0.2 32.4
07:30 1011 29.85 840 24.81 5.3 41.6 72 0.6 33.2
07:35 1011 29.85 840 24.81 5.5 41.9 73 1 33.7
07:40 1011 29.85 840 24.81 5.5 41.8 72 0.8 33.4
07:45 1011 29.85 840 24.81 5.5 42 72 0.9 33.6
07:50 1011 29.85 840 24.81 6 42.7 68 0.5 33
07:55 1011 29.85 840 24.81 6.3 43.3 68 0.9 33.6
08:00 1011 29.85 840 24.81 6.2 43.1 70 1 33.9
08:05 1011 29.85 840 24.81 6.5 43.6 67 0.9 33.5
08:10 1011 29.85 840 24.81 6.3 43.4 71 1.4 34.5
08:15 1011 29.85 840 24.81 6.6 44 66 0.7 33.3
08:20 1011 29.85 840 24.81 6.4 43.5 68 1 33.8
08:25 1011 29.85 840 24.81 6.5 43.7 68 1 33.8
08:30 1011 29.85 840 24.81 7.2 44.9 66 1.3 34.3
08:35 1011 29.85 840 24.81 7.3 45.1 68 1.8 35.3
08:40 1011 29.85 840 24.81 7.3 45.2 67 1.6 34.9
08:45 1011 29.85 840 24.81 7.1 44.9 68 1.7 35
08:50 1011 29.85 840 24.81 8 46.4 63 1.4 34.6
08:55 1010 29.83 840 24.81 8.5 47.3 62 1.8 35.2
09:00 1010 29.83 840 24.81 8.8 47.8 63 2.2 35.9
09:05 1010 29.83 840 24.81 8.3 47 62 1.6 34.9
09:10 1010 29.83 839 24.78 8.4 47.1 62 1.5 34.7
09:15 1010 29.83 839 24.78 9.2 48.6 54 0.6 33
09:20 1010 29.83 839 24.78 8.9 48 61 1.9 35.4
09:25 1010 29.83 839 24.78 8.9 47.9 59 1.3 34.4
09:30 1010 29.83 839 24.78 9.1 48.4 61 2 35.6
09:35 1010 29.83 839 24.78 9.6 49.3 54 0.9 33.5
09:40 1010 29.83 839 24.78 9.7 49.5 57 1.6 34.8
09:45 1010 29.83 839 24.78 9.8 49.6 55 1.2 34.2
09:50 1010 29.83 839 24.78 10.3 50.5 54 1.5 34.7
09:55 1010 29.83 839 24.78 10 50 56 1.7 35
10:00 1010 29.83 839 24.78 10.1 50.1 55 1.6 34.8
10:05 1010 29.83 839 24.78 9.9 49.8 57 1.8 35.2
10:10 1010 29.83 839 24.78 10.2 50.3 55 1.6 34.8
10:15 1010 29.83 839 24.78 10.8 51.4 53 1.6 34.9
10:20 1010 29.83 839 24.78 10.5 50.8 54 1.7 35
10:25 1010 29.83 839 24.78 10.6 51.1 55 2 35.6
10:30 1010 29.83 839 24.78 10 50 56 1.6 34.9
10:35 1010 29.83 839 24.78 10.3 50.5 54 1.4 34.5
10:40 1010 29.83 839 24.78 10.9 51.6 51 1.2 34.2
10:45 1010 29.83 839 24.78 11 51.8 53 1.7 35.1
10:50 1010 29.83 839 24.78 11.5 52.7 50 1.5 34.7
10:55 1010 29.83 839 24.78 12 53.6 49 1.7 35.1
11:00 1009 29.8 839 24.78 11.5 52.7 50 1.4 34.6
11:05 1009 29.8 839 24.78 12.2 54 48 1.6 34.9
11:10 1009 29.8 838 24.75 12.2 54 47 1.3 34.3
11:15 1009 29.8 838 24.75 12.7 54.9 48 2.1 35.8
11:20 1009 29.8 838 24.75 12.6 54.6 46 1.4 34.6
11:25 1009 29.8 838 24.75 13 55.5 43 0.8 33.4
11:30 1009 29.8 838 24.75 13.4 56.1 42 1 33.7
11:35 1009 29.8 838 24.75 13.2 55.7 42 0.8 33.4
11:40 1009 29.8 838 24.75 13.5 56.2 43 1 33.9
11:45 1009 29.8 838 24.75 13.7 56.6 42 0.9 33.7
11:50 1009 29.8 838 24.75 14 57.2 40 0.7 33.2
11:55 1009 29.8 838 24.75 14 57.2 40 0.8 33.5
12:00 1009 29.8 838 24.75 14.5 58 39 0.7 33.3
12:05 1009 29.8 838 24.75 14.7 58.4 36 0 32
12:10 1009 29.8 838 24.75 14.7 58.4 37 0.4 32.7
12:15 1009 29.8 838 24.75 14.9 58.8 36 -0.1 31.8
12:20 1009 29.8 838 24.75 13.7 56.7 38 -0.3 31.5
12:25 1009 29.8 838 24.75 13.6 56.4 38 -0.4 31.2
12:30 1008 29.77 838 24.75 13.1 55.7 40 0 32
12:35 1008 29.77 838 24.75 12.6 54.6 39 -0.8 30.5
12:40 1008 29.77 838 24.75 13.4 56.1 38 -0.7 30.8
12:45 1008 29.77 837 24.72 13.1 55.5 40 -0 31.9
12:50 1008 29.77 837 24.72 12.4 54.2 48 1.8 35.2
12:55 1008 29.77 837 24.72 10.9 51.6 58 3 37.4
13:00 1008 29.77 838 24.75 10.4 50.7 57 2.4 36.3
13:05 1008 29.77 838 24.75 10.9 51.6 50 1 33.8
13:10 1008 29.77 838 24.75 10.8 51.4 52 1.4 34.5
13:15 1008 29.77 837 24.72 11.4 52.5 51 1.7 35
13:20 1008 29.77 837 24.72 11.7 53.1 51 1.8 35.3
13:25 1008 29.77 837 24.72 11.2 52.1 52 1.7 35.1
13:30 1008 29.77 837 24.72 10.7 51.2 52 1.4 34.4
13:35 1008 29.77 837 24.72 11.1 51.9 48 0.6 33.2
13:40 1008 29.77 837 24.72 11.6 52.9 49 1.3 34.3
13:45 1008 29.77 837 24.72 11.4 52.4 50 1.4 34.4
13:50 1008 29.77 837 24.72 11.5 52.7 49 1.4 34.5
13:55 1008 29.77 837 24.72 11.7 53.1 48 1.1 34
14:00 1008 29.77 837 24.72 11.9 53.4 47 1 33.9
14:05 1008 29.77 837 24.72 12 53.6 46 0.8 33.4
14:10 1008 29.77 837 24.72 12.1 53.7 45 0.5 32.8
14:15 1008 29.77 837 24.72 12.4 54.2 43 0.3 32.6
14:20 1008 29.77 837 24.72 12.6 54.7 42 0.1 32.2
14:25 1007 29.74 837 24.72 12.9 55.2 43 0.7 33.2
14:30 1007 29.74 837 24.72 13 55.5 42 0.4 32.7
14:35 1007 29.74 837 24.72 13.2 55.8 41 0.4 32.7
14:40 1007 29.74 836 24.69 13.5 56.2 40 0.2 32.4
14:45 1007 29.74 836 24.69 13.7 56.6 41 0.6 33.2
14:50 1007 29.74 836 24.69 13.6 56.4 41 0.8 33.4
14:55 1007 29.74 836 24.69 13.7 56.6 40 0.3 32.5
15:00 1007 29.74 836 24.69 13.5 56.3 42 0.8 33.5
15:05 1007 29.74 836 24.69 13.4 56.2 41 0.4 32.7
15:10 1007 29.74 836 24.69 13.6 56.5 42 1.1 34
15:15 1006 29.71 836 24.69 13.4 56.2 41 0.7 33.2
15:20 1006 29.71 836 24.69 13.2 55.8 41 0.4 32.7
15:25 1006 29.71 836 24.69 13.2 55.7 42 0.5 32.9
15:30 1006 29.71 835 24.66 13.3 55.9 42 0.6 33
15:35 1006 29.71 835 24.66 13.2 55.8 44 1.2 34.1
15:40 1006 29.71 835 24.66 12.9 55.2 44 1.1 33.9
15:45 1006 29.71 835 24.66 12.7 54.8 45 1 33.9
15:50 1006 29.71 835 24.66 12.5 54.5 46 1.4 34.4
15:55 1006 29.71 835 24.66 12.2 54 47 1.3 34.4
16:00 1006 29.71 835 24.66 12.3 54.1 47 1.4 34.5
16:05 1005 29.68 835 24.66 12.3 54.1 48 1.5 34.7
16:10 1005 29.68 834 24.63 12.2 54 47 1.2 34.1
16:15 1005 29.68 835 24.66 12.7 54.9 45 1.1 34
16:20 1005 29.68 835 24.66 13 55.3 45 1.3 34.3
16:25 1005 29.68 835 24.66 12.9 55.2 44 1.2 34.1
16:30 1006 29.71 835 24.66 12.6 54.6 45 1.1 34
16:35 1005 29.68 835 24.66 12.3 54.2 45 0.8 33.4
16:40 1005 29.68 835 24.66 12.3 54.1 45 0.7 33.3
16:45 1005 29.68 835 24.66 12.4 54.3 46 1.1 33.9
16:50 1005 29.68 835 24.66 12.5 54.4 44 0.5 33
16:55 1005 29.68 835 24.66 12.3 54.2 44 0.4 32.8
17:00 1005 29.68 835 24.66 12.3 54.1 44 0.5 32.9
17:05 1005 29.68 835 24.66 12.3 54.1 45 0.6 33.1
17:10 1005 29.68 835 24.66 12.2 53.9 45 0.7 33.2
17:15 1006 29.71 835 24.66 12.2 53.9 43 0.1 32.2
17:20 1006 29.71 835 24.66 12.1 53.8 44 0.4 32.7
17:25 1006 29.71 835 24.66 12 53.5 46 0.8 33.4
17:30 1006 29.71 835 24.66 11.9 53.3 46 0.6 33.1
17:35 1006 29.71 835 24.66 11.8 53.2 47 0.8 33.4
17:40 1006 29.71 835 24.66 11.7 53.1 47 0.8 33.4
17:45 1006 29.71 835 24.66 11.6 52.8 48 0.9 33.6
17:50 1005 29.68 835 24.66 11.5 52.7 48 0.9 33.6
17:55 1005 29.68 835 24.66 11.5 52.6 49 1.1 34
18:00 1005 29.68 835 24.66 11.4 52.5 49 1.1 34
18:05 1005 29.68 834 24.63 11.3 52.4 49 1.1 34
18:10 1005 29.68 835 24.66 11.3 52.3 49 1.1 34
18:15 1005 29.68 835 24.66 11.2 52.1 50 1.1 33.9
18:20 1005 29.68 835 24.66 11.2 52.2 50 1.3 34.3
18:25 1005 29.68 834 24.63 11.1 52.1 51 1.5 34.7
18:30 1005 29.68 834 24.63 11.1 51.9 51 1.4 34.5
18:35 1005 29.68 834 24.63 11 51.8 52 1.5 34.8
18:40 1005 29.68 834 24.63 10.9 51.7 52 1.4 34.6
18:45 1005 29.68 834 24.63 10.9 51.6 52 1.4 34.5
18:50 1005 29.68 834 24.63 10.8 51.5 53 1.6 35
18:55 1005 29.68 834 24.63 10.6 51 54 1.7 35.1
19:00 1005 29.68 834 24.63 10.2 50.3 57 2.2 35.9
19:05 1005 29.68 834 24.63 9.7 49.5 61 2.6 36.6
19:10 1005 29.68 834 24.63 9.4 48.8 63 2.7 36.8
19:15 1005 29.68 834 24.63 9.2 48.5 64 2.8 37.1
19:20 1005 29.68 834 24.63 9 48.2 66 3 37.4
19:25 1005 29.68 835 24.66 8.9 47.9 67 3 37.4
19:30 1005 29.68 835 24.66 8.7 47.7 67 3.1 37.5
19:35 1005 29.68 835 24.66 8.6 47.5 68 3.2 37.7
19:40 1005 29.68 835 24.66 8.5 47.3 69 3.1 37.6
19:45 1005 29.68 834 24.63 8.4 47.1 69 3.1 37.6
19:50 1005 29.68 835 24.66 8.3 47 70 3.2 37.8
19:55 1005 29.68 835 24.66 8.2 46.8 70 3.1 37.6
20:00 1005 29.68 835 24.66 8.3 46.9 70 3.2 37.7
20:05 1005 29.68 835 24.66 8.2 46.7 71 3.3 37.9
20:10 1005 29.68 835 24.66 8.1 46.6 72 3.3 37.9
20:15 1006 29.71 835 24.66 8.1 46.5 72 3.4 38.1
20:20 1006 29.71 835 24.66 7.9 46.2 74 3.5 38.3
20:25 1006 29.71 835 24.66 7.8 46 75 3.6 38.4
20:30 1006 29.71 835 24.66 7.7 45.8 77 3.9 39
20:35 1006 29.71 835 24.66 7.5 45.5 78 4 39.2
20:40 1005 29.68 835 24.66 7.3 45.1 81 4.2 39.6
20:45 1005 29.68 835 24.66 7.1 44.8 81 4.1 39.4
20:50 1005 29.68 835 24.66 7 44.7 82 4.1 39.5
20:55 1005 29.68 834 24.63 7 44.5 81 4 39.2
21:00 1005 29.68 835 24.66 7 44.6 82 4.1 39.4
21:05 1005 29.68 835 24.66 7 44.5 82 4 39.3
21:10 1005 29.68 835 24.66 6.9 44.4 82 4 39.2
21:15 1005 29.68 834 24.63 6.9 44.3 82 4 39.2
21:20 1005 29.68 834 24.63 6.8 44.3 82 3.9 39
21:25 1005 29.68 834 24.63 6.8 44.3 81 3.8 38.8
21:30 1005 29.68 834 24.63 6.8 44.2 79 3.5 38.2
21:35 1005 29.68 834 24.63 6.7 44.1 80 3.6 38.4
21:40 1005 29.68 834 24.63 6.7 44 80 3.4 38.2
21:45 1005 29.68 834 24.63 6.6 44 79 3.3 38
21:50 1005 29.68 834 24.63 6.6 43.9 80 3.4 38.2
21:55 1005 29.68 834 24.63 6.6 43.8 81 3.5 38.2
22:00 1004 29.65 834 24.63 6.6 43.8 80 3.3 38
22:05 1004 29.65 834 24.63 6.6 43.9 80 3.5 38.2
22:10 1004 29.65 834 24.63 6.5 43.7 81 3.6 38.4
22:15 1004 29.65 834 24.63 6.5 43.7 82 3.6 38.5
22:20 1004 29.65 834 24.63 6.5 43.8 82 3.6 38.5
22:25 1004 29.65 834 24.63 6.6 43.8 82 3.7 38.7
22:30 1004 29.65 834 24.63 6.5 43.8 82 3.7 38.6
22:35 1004 29.65 834 24.63 6.5 43.7 83 3.7 38.7
22:40 1004 29.65 833 24.6 6.5 43.6 83 3.7 38.7
22:45 1004 29.65 833 24.6 6.4 43.6 83 3.7 38.6
22:50 1004 29.65 833 24.6 6.4 43.6 82 3.6 38.4
22:55 1004 29.65 833 24.6 6.4 43.5 82 3.5 38.3
23:00 1004 29.65 833 24.6 6.4 43.5 82 3.5 38.3
23:05 1004 29.65 833 24.6 6.4 43.5 81 3.4 38.2
23:10 1004 29.65 833 24.6 6.4 43.5 82 3.5 38.4
23:15 1004 29.65 833 24.6 6.3 43.4 82 3.6 38.4
23:20 1004 29.65 833 24.6 6.3 43.4 82 3.4 38.1
23:25 1004 29.65 833 24.6 6.4 43.5 80 3.3 37.9
23:30 1004 29.65 833 24.6 6.4 43.5 80 3.3 37.9
23:35 1004 29.65 833 24.6 6.4 43.5 80 3.3 37.9
23:40 1004 29.65 833 24.6 6.3 43.4 81 3.4 38.1
23:45 1004 29.65 833 24.6 6.3 43.3 82 3.4 38
23:50 1004 29.65 833 24.6 6.2 43.2 81 3.2 37.7
23:55 1004 29.65 833 24.6 6.2 43.1 81 3.2 37.8
24:00 1004 29.65 833 24.6 6.1 42.9 81 3.1 37.6